Time;durP1;ratioP1;P1;durP2;ratioP2;P2;SDS_P1;SDS_P2;PMS_P1;PMS_P2;Temp;Humidity;BMP_temperature;BMP_pressure;BME280_temperature;BME280_humidity;BME280_pressure;Samples;Min_cycle;Max_cycle;Signal;HPM_P1;HPM_P2
2023/01/08 00:02:35;;;;;;;85.40;26.02;;;;;;;;;;12845592;19;20389;-66
2023/01/08 00:06:52;;;;;;;81.50;28.17;;;;;;;;;;12845997;19;20476;-65
2023/01/08 00:11:11;;;;;;;138.65;42.90;;;;;;;;;;12845099;19;20078;-65
2023/01/08 00:15:29;;;;;;;84.95;28.98;;;;;;;;;;12845075;19;20428;-67
2023/01/08 00:19:46;;;;;;;95.10;34.00;;;;;;;;;;12846097;19;20040;-65
2023/01/08 00:24:04;;;;;;;46.03;19.83;;;;;;;;;;12844862;19;20113;-65
2023/01/08 00:28:22;;;;;;;242.95;65.22;;;;;;;;;;12843562;19;20026;-66
2023/01/08 00:32:39;;;;;;;33.05;17.50;;;;;;;;;;12829440;19;123084;-68
2023/01/08 00:36:57;;;;;;;171.40;47.00;;;;;;;;;;12844516;19;20752;-65
2023/01/08 00:41:16;;;;;;;114.30;36.43;;;;;;;;;;12843304;19;20367;-66
2023/01/08 00:45:34;;;;;;;127.25;39.50;;;;;;;;;;12843390;19;20737;-65
2023/01/08 00:49:51;;;;;;;185.75;53.22;;;;;;;;;;12844552;19;20303;-65
2023/01/08 00:54:10;;;;;;;205.10;54.40;;;;;;;;;;12842562;19;20486;-67
2023/01/08 00:58:29;;;;;;;41.33;17.38;;;;;;;;;;12843563;19;20130;-65
2023/01/08 01:02:46;;;;;;;96.05;32.08;;;;;;;;;;12843744;19;20015;-65
2023/01/08 01:07:04;;;;;;;103.03;34.60;;;;;;;;;;12841400;19;20448;-64
2023/01/08 01:11:26;;;;;;;98.33;31.70;;;;;;;;;;12842097;19;20363;-65
2023/01/08 01:15:44;;;;;;;83.15;27.02;;;;;;;;;;12842107;19;20489;-65
2023/01/08 01:20:01;;;;;;;66.72;23.83;;;;;;;;;;12842221;19;20362;-65
2023/01/08 01:24:22;;;;;;;85.43;29.13;;;;;;;;;;12842081;19;20461;-65
2023/01/08 01:28:40;;;;;;;40.40;18.80;;;;;;;;;;12841170;19;20479;-64
2023/01/08 01:32:57;;;;;;;53.43;19.90;;;;;;;;;;12842004;19;20469;-64
2023/01/08 01:37:15;;;;;;;36.20;16.42;;;;;;;;;;12840437;19;20485;-65
2023/01/08 01:41:40;;;;;;;38.72;17.40;;;;;;;;;;12839817;19;20403;-66
2023/01/08 01:45:58;;;;;;;30.52;15.93;;;;;;;;;;12839663;19;20367;-66
2023/01/08 01:50:25;;;;;;;23.48;12.35;;;;;;;;;;12838326;19;20444;-65
2023/01/08 01:54:42;;;;;;;21.63;11.75;;;;;;;;;;12839741;19;20430;-64
2023/01/08 01:59:00;;;;;;;27.80;15.13;;;;;;;;;;12840303;19;20319;-65
2023/01/08 02:03:23;;;;;;;23.80;13.07;;;;;;;;;;12840184;19;20445;-66
2023/01/08 02:08:08;;;;;;;20.77;11.90;;;;;;;;;;12838286;19;20031;-65
2023/01/08 02:12:41;;;;;;;21.63;11.20;;;;;;;;;;12837889;19;20381;-65
2023/01/08 02:17:08;;;;;;;18.27;10.82;;;;;;;;;;12840783;19;20583;-65
2023/01/08 02:21:51;;;;;;;23.00;12.68;;;;;;;;;;12836613;19;20335;-65
2023/01/08 02:26:30;;;;;;;35.10;17.95;;;;;;;;;;12835143;19;20014;-65
2023/01/08 02:30:48;;;;;;;26.85;15.25;;;;;;;;;;12837166;19;20336;-64
2023/01/08 02:35:07;;;;;;;36.45;17.48;;;;;;;;;;12837787;19;20436;-64
2023/01/08 02:39:52;;;;;;;25.83;13.82;;;;;;;;;;12838162;19;20853;-64
2023/01/08 02:44:16;;;;;;;19.27;10.68;;;;;;;;;;12835220;19;20334;-64
2023/01/08 02:48:51;;;;;;;19.95;11.50;;;;;;;;;;12836478;19;20283;-66
2023/01/08 02:53:21;;;;;;;21.02;11.88;;;;;;;;;;12834711;19;20015;-65
2023/01/08 02:57:39;;;;;;;18.75;10.23;;;;;;;;;;12835619;19;20404;-65
2023/01/08 03:01:58;;;;;;;17.05;10.40;;;;;;;;;;12835452;19;20334;-64
2023/01/08 03:06:19;;;;;;;16.30;9.75;;;;;;;;;;12833008;19;20461;-65
2023/01/08 03:10:40;;;;;;;15.10;9.35;;;;;;;;;;12835829;19;20011;-65
2023/01/08 03:15:06;;;;;;;19.63;10.65;;;;;;;;;;12836574;19;20464;-64
2023/01/08 03:19:48;;;;;;;15.77;9.32;;;;;;;;;;12834073;19;20485;-64
2023/01/08 03:24:08;;;;;;;12.95;9.07;;;;;;;;;;12833413;19;20014;-65
2023/01/08 03:28:32;;;;;;;16.02;8.32;;;;;;;;;;12834332;19;20477;-65
2023/01/08 03:32:52;;;;;;;15.23;9.38;;;;;;;;;;12834149;19;20343;-64
2023/01/08 03:37:12;;;;;;;19.23;11.07;;;;;;;;;;12835471;19;20351;-65
2023/01/08 03:41:32;;;;;;;18.15;11.05;;;;;;;;;;12832510;19;20011;-64
2023/01/08 03:45:57;;;;;;;18.88;11.43;;;;;;;;;;12834328;19;20469;-64
2023/01/08 03:50:22;;;;;;;28.48;14.93;;;;;;;;;;12831672;19;20363;-65
2023/01/08 03:54:40;;;;;;;26.83;11.48;;;;;;;;;;12832648;19;20346;-64
2023/01/08 03:58:57;;;;;;;18.57;10.63;;;;;;;;;;12834106;19;20396;-65
2023/01/08 04:03:15;;;;;;;20.77;10.00;;;;;;;;;;12834269;19;20465;-66
2023/01/08 04:07:33;;;;;;;20.55;9.30;;;;;;;;;;12845294;19;20360;-64
2023/01/08 04:11:51;;;;;;;15.03;9.00;;;;;;;;;;12847478;19;20461;-64
2023/01/08 04:16:08;;;;;;;19.07;9.87;;;;;;;;;;12845081;19;20494;-65
2023/01/08 04:20:26;;;;;;;17.87;10.20;;;;;;;;;;12845083;19;20015;-65
2023/01/08 04:24:44;;;;;;;15.10;9.38;;;;;;;;;;12844905;19;20252;-64
2023/01/08 04:29:03;;;;;;;16.38;9.68;;;;;;;;;;12845100;19;20018;-65
2023/01/08 04:33:20;;;;;;;17.02;9.70;;;;;;;;;;12844798;19;20471;-64
2023/01/08 04:37:38;;;;;;;18.50;11.03;;;;;;;;;;12844278;19;20388;-64
2023/01/08 04:41:55;;;;;;;18.60;10.77;;;;;;;;;;12844951;19;20007;-63
2023/01/08 04:46:13;;;;;;;21.37;12.10;;;;;;;;;;12843247;19;20497;-65
2023/01/08 04:50:31;;;;;;;19.40;11.87;;;;;;;;;;12843801;19;20488;-66
2023/01/08 04:54:49;;;;;;;19.33;10.32;;;;;;;;;;12844017;19;20119;-64
2023/01/08 04:59:06;;;;;;;16.67;10.80;;;;;;;;;;12843108;19;20058;-65
2023/01/08 05:03:24;;;;;;;15.70;9.53;;;;;;;;;;12843240;19;20310;-65
2023/01/08 05:07:42;;;;;;;22.33;11.27;;;;;;;;;;12842118;19;20287;-64
2023/01/08 05:11:59;;;;;;;18.73;10.07;;;;;;;;;;12843753;19;20437;-64
2023/01/08 05:16:17;;;;;;;21.40;10.93;;;;;;;;;;12841196;19;20372;-64
2023/01/08 05:20:35;;;;;;;18.50;12.05;;;;;;;;;;12842033;19;20378;-64
2023/01/08 05:24:52;;;;;;;20.90;11.77;;;;;;;;;;12841959;19;20443;-63
2023/01/08 05:29:10;;;;;;;17.77;9.83;;;;;;;;;;12841770;19;20362;-64
2023/01/08 05:33:27;;;;;;;17.73;11.45;;;;;;;;;;12841156;19;20129;-64
2023/01/08 05:37:45;;;;;;;29.93;16.83;;;;;;;;;;12841188;19;20457;-64
2023/01/08 05:42:03;;;;;;;26.13;14.00;;;;;;;;;;12840021;19;20469;-64
2023/01/08 05:46:21;;;;;;;22.38;10.80;;;;;;;;;;12335098;19;10000851;-65
2023/01/08 05:50:39;;;;;;;22.40;10.83;;;;;;;;;;12838656;19;20381;-65
2023/01/08 05:54:58;;;;;;;18.15;10.40;;;;;;;;;;12840999;19;20464;-67
2023/01/08 05:59:16;;;;;;;14.90;8.88;;;;;;;;;;12839980;19;20372;-65
2023/01/08 06:03:34;;;;;;;15.93;10.07;;;;;;;;;;12840631;19;20490;-66
2023/01/08 06:07:51;;;;;;;14.52;9.63;;;;;;;;;;12840170;19;20480;-63
2023/01/08 06:12:09;;;;;;;16.98;9.05;;;;;;;;;;12839494;19;20433;-66
2023/01/08 06:16:26;;;;;;;13.83;7.97;;;;;;;;;;12839638;19;20345;-65
2023/01/08 06:20:44;;;;;;;13.93;8.77;;;;;;;;;;12839596;19;20454;-64
2023/01/08 06:25:03;;;;;;;15.77;9.43;;;;;;;;;;12839521;19;20287;-65
2023/01/08 06:29:20;;;;;;;;;;;;;;;;;;12836185;19;20006;-64
2023/01/08 06:33:57;;;;;;;18.05;10.65;;;;;;;;;;12838232;19;20223;-64
2023/01/08 06:38:48;;;;;;;30.63;21.63;;;;;;;;;;12792889;19;20445;-65
2023/01/08 06:43:05;;;;;;;17.50;11.10;;;;;;;;;;12836925;19;20014;-64
2023/01/08 06:47:23;;;;;;;15.65;9.95;;;;;;;;;;12836978;19;20350;-65
2023/01/08 06:51:41;;;;;;;11.68;7.82;;;;;;;;;;12838183;19;20372;-65
2023/01/08 06:55:59;;;;;;;15.07;8.50;;;;;;;;;;12838319;19;20010;-64
2023/01/08 07:00:16;;;;;;;15.15;9.30;;;;;;;;;;12837786;19;20010;-64
2023/01/08 07:04:34;;;;;;;14.57;9.45;;;;;;;;;;12836526;19;20310;-64
2023/01/08 07:08:52;;;;;;;16.70;8.55;;;;;;;;;;12835685;19;20405;-66
2023/01/08 07:13:11;;;;;;;17.37;9.30;;;;;;;;;;12835683;19;20465;-64
2023/01/08 07:17:33;;;;;;;14.55;9.25;;;;;;;;;;12833822;19;20486;-64
2023/01/08 07:21:51;;;;;;;16.63;9.95;;;;;;;;;;12836101;19;20383;-65
2023/01/08 07:26:08;;;;;;;23.63;13.68;;;;;;;;;;12834409;19;20015;-65
2023/01/08 07:30:27;;;;;;;18.53;11.50;;;;;;;;;;12833057;19;20100;-65
2023/01/08 07:34:47;;;;;;;12.70;8.82;;;;;;;;;;12835119;19;20430;-63
2023/01/08 07:39:04;;;;;;;15.77;9.23;;;;;;;;;;12837971;19;20533;-64
2023/01/08 07:43:22;;;;;;;14.30;8.50;;;;;;;;;;12844740;19;20318;-64
2023/01/08 07:47:40;;;;;;;17.50;8.82;;;;;;;;;;12845851;19;20462;-65
2023/01/08 07:51:58;;;;;;;;;;;;;;;;;;12848411;19;20387;-65
2023/01/08 07:56:16;;;;;;;21.85;11.98;;;;;;;;;;12846965;19;19911;-65
2023/01/08 08:00:34;;;;;;;17.75;10.50;;;;;;;;;;12845856;19;20492;-65
2023/01/08 08:04:51;;;;;;;17.95;10.50;;;;;;;;;;12846331;19;20511;-64
2023/01/08 08:09:09;;;;;;;14.50;9.02;;;;;;;;;;12844753;19;20010;-65
2023/01/08 08:13:26;;;;;;;21.65;11.30;;;;;;;;;;12846860;19;20457;-65
2023/01/08 08:17:46;;;;;;;16.43;8.73;;;;;;;;;;12845906;19;20484;-64
2023/01/08 08:22:04;;;;;;;13.68;7.10;;;;;;;;;;12844523;19;20462;-64
2023/01/08 08:26:22;;;;;;;13.45;7.53;;;;;;;;;;12844550;19;20503;-67
2023/01/08 08:30:40;;;;;;;14.48;10.25;;;;;;;;;;12844623;19;20351;-65
2023/01/08 08:34:59;;;;;;;15.80;9.98;;;;;;;;;;12842552;19;20085;-64
2023/01/08 08:39:17;;;;;;;11.07;7.97;;;;;;;;;;12844062;19;20465;-65
2023/01/08 08:43:34;;;;;;;16.15;8.38;;;;;;;;;;12840050;19;20367;-66
2023/01/08 08:47:53;;;;;;;12.82;7.03;;;;;;;;;;12844259;19;20367;-66
2023/01/08 08:52:10;;;;;;;10.43;6.60;;;;;;;;;;12841065;19;20380;-65
2023/01/08 08:56:28;;;;;;;13.18;6.97;;;;;;;;;;12839735;19;20573;-65
2023/01/08 09:00:46;;;;;;;10.70;6.32;;;;;;;;;;12844367;19;20035;-65
2023/01/08 09:05:05;;;;;;;11.98;7.72;;;;;;;;;;12840812;19;20481;-66
2023/01/08 09:09:22;;;;;;;12.73;7.88;;;;;;;;;;12842335;19;20347;-65
2023/01/08 09:13:40;;;;;;;13.57;7.67;;;;;;;;;;12841513;19;20481;-67
2023/01/08 09:17:58;;;;;;;12.18;7.35;;;;;;;;;;12842070;19;20086;-66
2023/01/08 09:22:15;;;;;;;9.40;5.77;;;;;;;;;;12841700;19;20503;-65
2023/01/08 09:26:33;;;;;;;9.88;6.25;;;;;;;;;;12840978;19;20612;-66
2023/01/08 09:30:51;;;;;;;10.27;5.87;;;;;;;;;;12842275;19;20444;-65
2023/01/08 09:35:08;;;;;;;11.90;6.53;;;;;;;;;;12839500;19;20501;-66
2023/01/08 09:39:26;;;;;;;8.98;5.70;;;;;;;;;;12840869;19;20335;-66
2023/01/08 09:43:47;;;;;;;12.98;6.85;;;;;;;;;;12839790;19;20021;-65
2023/01/08 09:48:13;;;;;;;11.40;6.63;;;;;;;;;;12837756;19;20339;-65
2023/01/08 09:52:31;;;;;;;13.05;7.15;;;;;;;;;;12838505;19;20349;-69
2023/01/08 09:56:51;;;;;;;16.75;7.50;;;;;;;;;;12840100;19;20421;-65
2023/01/08 10:01:14;;;;;;;16.58;6.47;;;;;;;;;;12836982;19;20031;-65
2023/01/08 10:05:32;;;;;;;11.13;6.00;;;;;;;;;;12839675;19;20441;-66
2023/01/08 10:09:51;;;;;;;13.10;6.05;;;;;;;;;;12839558;19;20499;-65
2023/01/08 10:14:32;;;;;;;11.40;6.47;;;;;;;;;;12836590;19;20014;-65
2023/01/08 10:18:49;;;;;;;12.88;7.18;;;;;;;;;;12837597;19;20387;-66
2023/01/08 10:23:10;;;;;;;14.55;7.22;;;;;;;;;;12837494;19;20073;-67
2023/01/08 10:27:28;;;;;;;9.18;5.80;;;;;;;;;;12838301;19;20490;-66
2023/01/08 10:31:54;;;;;;;11.30;5.90;;;;;;;;;;12836109;19;20466;-66
2023/01/08 10:36:21;;;;;;;9.63;5.65;;;;;;;;;;12835054;19;20015;-66
2023/01/08 10:40:44;;;;;;;9.98;5.30;;;;;;;;;;12837273;19;20375;-65
2023/01/08 10:45:09;;;;;;;10.60;5.75;;;;;;;;;;12835180;19;20365;-66
2023/01/08 10:49:40;;;;;;;12.50;7.10;;;;;;;;;;12835547;19;20469;-66
2023/01/08 10:54:11;;;;;;;28.67;13.93;;;;;;;;;;12837876;19;20373;-65
2023/01/08 10:58:39;;;;;;;12.65;5.97;;;;;;;;;;12836713;19;20537;-65
2023/01/08 11:03:05;;;;;;;8.75;4.72;;;;;;;;;;12836671;19;20368;-67
2023/01/08 11:07:23;;;;;;;10.75;5.88;;;;;;;;;;12836399;19;20010;-67
2023/01/08 11:11:40;;;;;;;9.18;5.25;;;;;;;;;;12835787;19;20382;-66
2023/01/08 11:16:09;;;;;;;8.27;5.20;;;;;;;;;;12844062;19;20389;-65
2023/01/08 11:20:30;;;;;;;10.77;6.10;;;;;;;;;;12849209;19;20492;-66
2023/01/08 11:24:52;;;;;;;18.38;6.95;;;;;;;;;;12848779;19;20011;-66
2023/01/08 11:29:16;;;;;;;18.60;9.63;;;;;;;;;;12845733;19;20372;-65
2023/01/08 11:33:36;;;;;;;10.20;5.60;;;;;;;;;;12850674;19;20385;-65
2023/01/08 11:38:00;;;;;;;9.80;5.35;;;;;;;;;;12847912;19;20083;-65
2023/01/08 11:42:33;;;;;;;7.88;4.18;;;;;;;;;;12845107;19;20355;-65
2023/01/08 11:47:07;;;;;;;7.25;3.92;;;;;;;;;;12847379;19;20335;-65
2023/01/08 11:51:49;;;;;;;11.00;4.72;;;;;;;;;;12845027;19;20038;-68
2023/01/08 11:56:23;;;;;;;20.35;9.43;;;;;;;;;;12844133;19;20301;-67
2023/01/08 12:00:51;;;;;;;36.20;12.35;;;;;;;;;;12847223;19;20350;-65
2023/01/08 12:05:30;;;;;;;28.05;10.77;;;;;;;;;;12845613;19;20522;-66
2023/01/08 12:10:11;;;;;;;35.25;12.05;;;;;;;;;;12844390;19;20408;-65
2023/01/08 12:14:56;;;;;;;33.70;12.20;;;;;;;;;;12843871;19;20408;-66
2023/01/08 12:19:57;;;;;;;12.98;6.43;;;;;;;;;;12842746;19;20500;-66
2023/01/08 12:24:46;;;;;;;40.60;10.95;;;;;;;;;;12846692;19;20367;-66
2023/01/08 12:29:37;;;;;;;27.30;9.75;;;;;;;;;;12842117;19;20510;-65
2023/01/08 12:34:28;;;;;;;21.70;7.78;;;;;;;;;;12844316;19;20490;-67
2023/01/08 12:38:57;;;;;;;47.10;15.73;;;;;;;;;;12841476;19;20477;-66
2023/01/08 12:43:27;;;;;;;39.95;12.65;;;;;;;;;;12842255;19;20375;-66
2023/01/08 12:47:52;;;;;;;131.00;33.20;;;;;;;;;;12840224;19;20500;-65
2023/01/08 12:52:25;;;;;;;135.38;34.15;;;;;;;;;;12843128;19;20006;-65
2023/01/08 12:57:10;;;;;;;27.40;8.13;;;;;;;;;;12841577;19;20469;-67
2023/01/08 13:01:30;;;;;;;30.98;11.05;;;;;;;;;;12842664;19;20504;-65
2023/01/08 13:05:49;;;;;;;31.25;11.70;;;;;;;;;;12842689;19;20027;-65
2023/01/08 13:10:37;;;;;;;20.05;8.25;;;;;;;;;;12840754;19;20491;-66
2023/01/08 13:14:56;;;;;;;43.50;16.83;;;;;;;;;;12842392;19;20079;-65
2023/01/08 13:19:49;;;;;;;16.63;7.43;;;;;;;;;;12841152;19;20153;-67
2023/01/08 13:24:37;;;;;;;29.52;14.07;;;;;;;;;;12840937;19;20070;-67
2023/01/08 13:29:23;;;;;;;136.18;46.78;;;;;;;;;;12840995;19;20521;-65
2023/01/08 13:33:42;;;;;;;57.20;22.85;;;;;;;;;;12841380;19;20018;-65
2023/01/08 13:38:08;;;;;;;69.80;15.68;;;;;;;;;;12840803;19;20469;-66
2023/01/08 13:42:30;;;;;;;34.42;9.02;;;;;;;;;;12840349;19;20417;-65
2023/01/08 13:46:55;;;;;;;11.65;6.00;;;;;;;;;;12839859;19;20112;-66
2023/01/08 13:51:37;;;;;;;10.10;6.00;;;;;;;;;;12840160;19;20473;-66
2023/01/08 13:56:07;;;;;;;25.20;8.20;;;;;;;;;;12841031;19;20521;-65
2023/01/08 14:00:42;;;;;;;27.17;10.33;;;;;;;;;;12840730;19;20554;-66
2023/01/08 14:05:10;;;;;;;21.52;8.65;;;;;;;;;;12840569;19;20437;-66
2023/01/08 14:09:28;;;;;;;46.80;16.52;;;;;;;;;;12839513;19;20477;-66
2023/01/08 14:13:46;;;;;;;46.88;19.10;;;;;;;;;;12841093;19;20085;-67
2023/01/08 14:18:04;;;;;;;47.90;19.88;;;;;;;;;;12836983;19;20469;-66
2023/01/08 14:22:31;;;;;;;89.68;33.05;;;;;;;;;;12838981;19;20419;-65
2023/01/08 14:26:58;;;;;;;59.05;23.83;;;;;;;;;;12837307;19;20055;-65
2023/01/08 14:31:21;;;;;;;81.95;30.00;;;;;;;;;;12838167;19;20035;-66
2023/01/08 14:35:39;;;;;;;25.98;13.30;;;;;;;;;;12838281;19;20011;-66
2023/01/08 14:39:57;;;;;;;30.70;15.25;;;;;;;;;;12838873;19;20314;-65
2023/01/08 14:44:15;;;;;;;99.20;26.40;;;;;;;;;;12836035;19;20422;-66
2023/01/08 14:48:43;;;;;;;36.58;13.23;;;;;;;;;;12834526;19;20465;-67
2023/01/08 14:53:26;;;;;;;37.53;15.15;;;;;;;;;;12837974;19;20022;-65
2023/01/08 14:57:46;;;;;;;34.25;14.45;;;;;;;;;;12836912;19;20326;-65
2023/01/08 15:02:13;;;;;;;35.67;13.43;;;;;;;;;;12835916;19;20014;-68
2023/01/08 15:06:32;;;;;;;36.50;14.43;;;;;;;;;;12836194;19;20385;-65
2023/01/08 15:11:02;;;;;;;39.00;18.70;;;;;;;;;;12836446;19;20371;-66
2023/01/08 15:15:23;;;;;;;44.42;18.98;;;;;;;;;;12834370;19;20366;-65
2023/01/08 15:19:48;;;;;;;31.45;14.77;;;;;;;;;;12836268;19;20394;-65
2023/01/08 15:24:06;;;;;;;45.25;22.20;;;;;;;;;;12835103;19;20357;-66
2023/01/08 15:28:25;;;;;;;55.13;28.95;;;;;;;;;;12836057;19;20465;-65
2023/01/08 15:32:43;;;;;;;90.80;30.13;;;;;;;;;;12835702;19;20463;-65
2023/01/08 15:37:01;;;;;;;48.00;21.33;;;;;;;;;;12835285;19;20461;-65
2023/01/08 15:45:58;;;;;;;49.60;25.38;;;;;;;;;;12836081;19;20346;-65
2023/01/08 15:50:16;;;;;;;57.47;26.13;;;;;;;;;;12833755;19;20401;-65
2023/01/08 15:54:34;;;;;;;54.70;27.50;;;;;;;;;;12834346;19;20397;-64
2023/01/08 15:58:53;;;;;;;71.25;31.85;;;;;;;;;;12832418;19;20379;-65
2023/01/08 16:03:12;;;;;;;55.35;27.27;;;;;;;;;;12845084;19;20490;-65
2023/01/08 16:07:30;;;;;;;65.68;27.77;;;;;;;;;;12846458;19;20453;-68
2023/01/08 16:11:49;;;;;;;51.50;25.30;;;;;;;;;;12844840;19;20501;-65
2023/01/08 16:16:13;;;;;;;73.80;32.17;;;;;;;;;;12844296;19;20339;-64
2023/01/08 16:20:30;;;;;;;66.85;34.22;;;;;;;;;;12844929;19;20481;-64
2023/01/08 16:24:48;;;;;;;63.60;31.40;;;;;;;;;;12843759;19;20477;-65
2023/01/08 16:29:06;;;;;;;65.72;30.77;;;;;;;;;;12843476;19;20478;-64
2023/01/08 16:33:24;;;;;;;57.55;28.10;;;;;;;;;;12844565;19;20472;-65
2023/01/08 16:37:42;;;;;;;63.72;29.25;;;;;;;;;;12844421;19;20364;-65
2023/01/08 16:41:59;;;;;;;66.77;31.13;;;;;;;;;;12844673;19;20352;-65
2023/01/08 16:46:17;;;;;;;67.43;33.43;;;;;;;;;;12842807;19;20295;-66
2023/01/08 16:50:35;;;;;;;74.35;38.30;;;;;;;;;;12843522;19;20490;-65
2023/01/08 16:54:52;;;;;;;86.65;41.50;;;;;;;;;;12844352;19;20129;-64
2023/01/08 16:59:11;;;;;;;77.53;34.97;;;;;;;;;;12841073;19;20319;-65
2023/01/08 17:03:39;;;;;;;;;;;;;;;;;;12843850;19;20549;-66
2023/01/08 17:07:57;;;;;;;69.63;29.50;;;;;;;;;;12842735;19;20302;-65
2023/01/08 17:12:21;;;;;;;70.53;32.50;;;;;;;;;;12840342;19;20313;-64
2023/01/08 17:16:41;;;;;;;88.78;41.80;;;;;;;;;;12841994;19;20465;-66
2023/01/08 17:20:59;;;;;;;93.82;44.05;;;;;;;;;;12842877;19;20392;-64
2023/01/08 17:25:17;;;;;;;87.13;41.50;;;;;;;;;;12841165;19;20429;-64
2023/01/08 17:29:34;;;;;;;88.27;41.43;;;;;;;;;;12841173;19;20340;-65
2023/01/08 17:33:53;;;;;;;126.37;52.03;;;;;;;;;;12841055;19;20326;-66
2023/01/08 17:38:11;;;;;;;110.88;49.60;;;;;;;;;;12840747;19;20011;-64
2023/01/08 17:42:29;;;;;;;92.72;44.20;;;;;;;;;;12839389;19;20529;-65
2023/01/08 17:46:47;;;;;;;75.18;40.28;;;;;;;;;;12841378;19;20473;-66
2023/01/08 17:51:05;;;;;;;77.88;38.30;;;;;;;;;;12839602;19;20489;-66
2023/01/08 17:55:26;;;;;;;114.80;46.50;;;;;;;;;;12840823;19;20338;-66
2023/01/08 17:59:46;;;;;;;131.10;49.47;;;;;;;;;;12840734;19;20015;-65
2023/01/08 18:04:04;;;;;;;79.78;36.38;;;;;;;;;;12839252;19;20375;-65
2023/01/08 18:08:23;;;;;;;131.23;51.43;;;;;;;;;;12838620;19;20498;-65
2023/01/08 18:12:40;;;;;;;115.53;52.88;;;;;;;;;;12839127;19;20523;-65
2023/01/08 18:16:58;;;;;;;129.00;71.77;;;;;;;;;;12839494;19;20507;-65
2023/01/08 18:21:17;;;;;;;97.83;47.47;;;;;;;;;;12839014;19;20595;-66
2023/01/08 18:25:39;;;;;;;106.85;51.65;;;;;;;;;;12838383;19;20622;-65
2023/01/08 18:29:57;;;;;;;84.28;40.63;;;;;;;;;;12837994;19;20374;-65
2023/01/08 18:34:15;;;;;;;71.33;36.63;;;;;;;;;;12838058;19;20363;-66
2023/01/08 18:38:32;;;;;;;77.53;39.30;;;;;;;;;;12837897;19;20137;-65
2023/01/08 18:42:53;;;;;;;73.90;37.60;;;;;;;;;;12839474;19;20425;-65
2023/01/08 18:47:11;;;;;;;68.60;35.17;;;;;;;;;;12836695;19;20600;-65
2023/01/08 18:51:33;;;;;;;61.15;33.63;;;;;;;;;;12840716;19;20434;-66
2023/01/08 18:55:50;;;;;;;62.22;31.67;;;;;;;;;;12802062;19;20368;-65
2023/01/08 19:00:10;;;;;;;60.40;30.73;;;;;;;;;;12835476;19;20372;-65
2023/01/08 19:04:28;;;;;;;66.35;32.25;;;;;;;;;;12836531;19;20533;-64
2023/01/08 19:08:45;;;;;;;162.40;65.87;;;;;;;;;;12834660;19;20043;-64
2023/01/08 19:13:04;;;;;;;148.02;63.90;;;;;;;;;;12835424;19;20023;-65
2023/01/08 19:17:22;;;;;;;;;;;;;;;;;;12836513;19;20472;-66
2023/01/08 19:21:40;;;;;;;85.47;43.73;;;;;;;;;;12835158;19;20277;-65
2023/01/08 19:25:57;;;;;;;73.88;34.58;;;;;;;;;;12835527;19;20007;-65
2023/01/08 19:30:15;;;;;;;74.17;39.00;;;;;;;;;;12834206;19;20087;-66
2023/01/08 19:34:33;;;;;;;83.93;34.25;;;;;;;;;;12836893;19;20347;-65
2023/01/08 19:38:52;;;;;;;57.58;30.73;;;;;;;;;;12847386;19;20006;-65
2023/01/08 19:47:48;;;;;;;70.05;33.88;;;;;;;;;;12846328;19;20027;-64
2023/01/08 19:52:05;;;;;;;44.63;25.60;;;;;;;;;;12845714;19;20395;-66
2023/01/08 19:56:23;;;;;;;51.63;28.00;;;;;;;;;;12843887;19;20480;-65
2023/01/08 20:00:43;;;;;;;57.58;29.20;;;;;;;;;;12845596;19;20437;-65
2023/01/08 20:05:00;;;;;;;57.10;28.10;;;;;;;;;;12843206;19;20469;-65
2023/01/08 20:09:18;;;;;;;87.45;35.47;;;;;;;;;;12843719;19;20608;-64
2023/01/08 20:13:36;;;;;;;58.13;30.13;;;;;;;;;;12844923;19;20089;-65
2023/01/08 20:17:54;;;;;;;58.72;28.23;;;;;;;;;;12846686;19;20298;-64
2023/01/08 20:22:12;;;;;;;56.28;27.90;;;;;;;;;;12843421;19;20364;-66
2023/01/08 20:26:30;;;;;;;54.92;26.92;;;;;;;;;;12845205;19;20478;-65
2023/01/08 20:30:48;;;;;;;45.00;22.52;;;;;;;;;;12845517;19;20360;-65
2023/01/08 20:35:07;;;;;;;48.00;23.87;;;;;;;;;;12843760;19;20474;-66
2023/01/08 20:39:25;;;;;;;44.47;22.73;;;;;;;;;;12844272;19;20022;-67
2023/01/08 20:43:45;;;;;;;47.55;22.13;;;;;;;;;;12841501;19;20039;-65
2023/01/08 20:48:06;;;;;;;41.45;23.02;;;;;;;;;;12840642;19;20494;-65
2023/01/08 20:52:23;;;;;;;41.83;22.35;;;;;;;;;;12843961;19;20394;-65
2023/01/08 20:56:43;;;;;;;34.70;18.83;;;;;;;;;;12843101;19;20503;-65
2023/01/08 21:01:21;;;;;;;37.20;19.42;;;;;;;;;;12844286;19;20532;-65
2023/01/08 21:05:39;;;;;;;41.88;21.42;;;;;;;;;;12843738;19;20468;-65
2023/01/08 21:09:57;;;;;;;36.08;18.50;;;;;;;;;;12843506;19;20366;-65
2023/01/08 21:14:15;;;;;;;35.55;19.92;;;;;;;;;;12842374;19;20490;-66
2023/01/08 21:18:33;;;;;;;40.65;21.50;;;;;;;;;;12842575;19;20598;-66
2023/01/08 21:22:50;;;;;;;38.83;20.47;;;;;;;;;;12842126;19;20366;-65
2023/01/08 21:27:08;;;;;;;57.93;27.70;;;;;;;;;;12842083;19;20028;-65
2023/01/08 21:31:27;;;;;;;31.30;18.40;;;;;;;;;;12841526;19;20486;-65
2023/01/08 21:35:45;;;;;;;37.35;20.63;;;;;;;;;;12841649;19;20489;-65
2023/01/08 21:40:04;;;;;;;41.67;22.60;;;;;;;;;;12841193;19;20435;-65
2023/01/08 21:49:00;;;;;;;;;;;;;;;;;;12842368;19;20452;-65
2023/01/08 21:53:30;;;;;;;148.13;40.42;;;;;;;;;;12840476;19;19918;-65
2023/01/08 21:57:50;;;;;;;151.57;38.83;;;;;;;;;;12840269;19;20478;-65
2023/01/08 22:02:15;;;;;;;105.68;34.30;;;;;;;;;;12839437;19;20523;-66
2023/01/08 22:06:33;;;;;;;220.13;58.90;;;;;;;;;;12840206;19;20433;-66
2023/01/08 22:10:51;;;;;;;52.50;21.48;;;;;;;;;;12841026;19;20018;-65
2023/01/08 22:15:10;;;;;;;153.05;53.35;;;;;;;;;;12839065;19;20023;-65
2023/01/08 22:19:27;;;;;;;379.67;147.88;;;;;;;;;;12840011;19;20474;-65
2023/01/08 22:23:45;;;;;;;41.78;22.90;;;;;;;;;;12839709;19;20354;-65
2023/01/08 22:28:02;;;;;;;128.97;48.07;;;;;;;;;;12837816;19;20381;-66
2023/01/08 22:32:20;;;;;;;60.28;26.50;;;;;;;;;;12837590;19;20366;-66
2023/01/08 22:36:38;;;;;;;251.10;79.50;;;;;;;;;;12838430;19;20027;-65
2023/01/08 22:40:55;;;;;;;76.57;31.73;;;;;;;;;;12839377;19;20654;-65
2023/01/08 22:45:13;;;;;;;285.73;95.70;;;;;;;;;;12837737;19;20070;-65
2023/01/08 22:49:32;;;;;;;278.00;81.07;;;;;;;;;;12837050;19;20363;-66
2023/01/08 22:53:54;;;;;;;330.10;87.20;;;;;;;;;;12836653;19;20484;-65
2023/01/08 22:58:13;;;;;;;246.23;65.10;;;;;;;;;;12836925;19;20377;-65
2023/01/08 23:02:32;;;;;;;297.83;79.32;;;;;;;;;;12838237;19;20201;-65
2023/01/08 23:06:49;;;;;;;304.27;79.03;;;;;;;;;;12838132;19;20490;-64
2023/01/08 23:11:10;;;;;;;142.27;37.70;;;;;;;;;;12834523;19;20052;-66
2023/01/08 23:15:28;;;;;;;81.40;26.85;;;;;;;;;;12836069;19;20378;-66
2023/01/08 23:19:45;;;;;;;56.33;20.03;;;;;;;;;;12839399;19;20509;-66
2023/01/08 23:24:06;;;;;;;76.00;23.73;;;;;;;;;;12835293;19;20505;-64
2023/01/08 23:28:23;;;;;;;188.30;51.58;;;;;;;;;;12835322;19;20498;-65
2023/01/08 23:32:41;;;;;;;74.70;26.63;;;;;;;;;;12835752;19;20461;-65
2023/01/08 23:36:59;;;;;;;98.50;32.97;;;;;;;;;;12833806;19;20389;-65
2023/01/08 23:41:18;;;;;;;196.93;51.87;;;;;;;;;;12835001;19;20066;-66
2023/01/08 23:45:37;;;;;;;108.90;35.38;;;;;;;;;;12834776;19;20584;-65
2023/01/08 23:49:55;;;;;;;244.77;63.17;;;;;;;;;;12834165;19;20094;-65
2023/01/08 23:54:13;;;;;;;268.33;68.43;;;;;;;;;;12833848;19;20494;-65
2023/01/08 23:58:31;;;;;;;60.58;22.83;;;;;;;;;;12834173;19;20366;-65
